Shin-oh Maru — JG5594 — position and weather

sailwx.info

Track history (hours):
 
Tides and Currents Weather Stations Pressure Air Temp Water Temp Dewpoint Dewpoint Depression Visibility Wind Speed Wind Dir Waves Ship Positions

Shin-oh Maru

Last reported at 2016-May-25 22:33 UTC. Time now 2016-May-26 12:39 UTC.
Position N 36°12' E 141°09'.

Length 161 m; draft 6.9 m.

Type: Ship (hazmat cat A). MMSI: 431100859.

Date/timePositionNaut miles runAvg speedWind from/ knotsBaromVisibWave heightAir tempDewpointWater temp
2016-May-25 22:33N 36°12' E 141°09'2519.0
2016-May-25 21:14N 35°48' E 141°02'2018.9
2016-May-25 20:09N 35°29' E 140°50'4020.1
2016-May-25 18:11N 35°00' E 140°18'1320.3
2016-May-25 17:32N 34°54' E 140°04'1616.5
2016-May-25 16:34N 34°55' E 139°44'1918.5
2016-May-25 15:33N 35°13' E 139°46'1313.5
2016-May-25 14:33N 35°27' E 139°46'1111.1
2016-May-25 13:33N 35°38' E 139°46'0 0.0
2016-May-25 12:34N 35°38' E 139°46'0 0.0
2016-May-25 11:31N 35°38' E 139°46'0 0.0
2016-May-25 10:31N 35°38' E 139°46'0 0.0
2016-May-25 09:31N 35°38' E 139°46'0 0.0
2016-May-25 08:33N 35°38' E 139°46'9 8.8
2016-May-25 07:33N 35°31' E 139°52'1514.6
2016-May-25 06:33N 35°17' E 139°45'1716.3
2016-May-25 05:32N 35°01' E 139°44'1313.5
2016-May-25 04:34N 34°52' E 139°57'3616.7
2016-May-25 02:24N 35°12' E 140°33'3518.4
2016-May-25 00:31N 35°40' E 140°58'1818.6
2016-May-24 23:33N 35°57' E 141°05'1918.9
2016-May-24 22:33N 36°15' E 141°12'1919.0
2016-May-24 21:34N 36°34' E 141°17'1919.3
2016-May-24 20:33N 36°52' E 141°23'1919.2
2016-May-24 19:33N 37°11' E 141°29'1918.8
2016-May-24 18:33N 37°29' E 141°34'1918.9
2016-May-24 17:33N 37°48' E 141°40'2118.7
2016-May-24 16:27N 38°08' E 141°45'68 1.7
2016-May-23 01:13N 37°02' E 141°25'1117.4
2016-May-23 00:33N 36°51' E 141°22'1717.2
2016-May-22 23:33N 36°34' E 141°16'1717.4
2016-May-22 22:33N 36°18' E 141°11'1717.3
2016-May-22 21:33N 36°01' E 141°06'1717.4
2016-May-22 20:33N 35°44' E 141°01'1717.2
2016-May-22 19:33N 35°29' E 140°50'1717.3
2016-May-22 18:33N 35°15' E 140°37'1717.2
2016-May-22 17:33N 35°02' E 140°23'1615.8
2016-May-22 16:33N 34°55' E 140°06'1515.2
2016-May-22 15:33N 34°51' E 139°48'1616.2
2016-May-22 14:33N 35°07' E 139°44'1414.1
2016-May-22 13:34N 35°21' E 139°42'1514.9
2016-May-22 12:33N 35°36' E 139°47'2 2.3
2016-May-22 11:33N 35°38' E 139°46'0 0.0
2016-May-22 10:33N 35°38' E 139°46'0 0.0
2016-May-22 09:33N 35°38' E 139°46'0 0.0
2016-May-22 08:33N 35°38' E 139°46'7 6.6
2016-May-22 07:33N 35°33' E 139°51'1515.1
2016-May-22 06:34N 35°19' E 139°44'1515.1
2016-May-22 05:34N 35°04' E 139°45'1513.7
2016-May-22 04:27N 34°51' E 139°56'1617.7
2016-May-22 03:32N 34°59' E 140°14'1816.9
2016-May-22 02:29N 35°10' E 140°31'1617.7
2016-May-22 01:34N 35°23' E 140°43'1918.8
2016-May-22 00:32N 35°38' E 140°57'1918.9
2016-May-21 23:33N 35°56' E 141°05'2019.7
2016-May-21 22:34N 36°15' E 141°11'2319.3
2016-May-21 21:22N 36°37' E 141°18'1619.3
2016-May-21 20:33N 36°52' E 141°23'31 0.7
2016-May-19 23:33N 36°23' E 141°12'1817.8
2016-May-19 22:33N 36°05' E 141°07'1817.6
2016-May-19 21:33N 35°48' E 141°02'1817.5
2016-May-19 20:31N 35°32' E 140°53'1817.9
2016-May-19 19:32N 35°17' E 140°40'2018.7
2016-May-19 18:28N 35°03' E 140°23'1718.8
2016-May-19 17:33N 34°54' E 140°05'1615.9
2016-May-19 16:33N 34°52' E 139°46'1818.4
2016-May-19 15:34N 35°11' E 139°46'1414.3
2016-May-19 14:34N 35°25' E 139°44'1312.8
2016-May-19 13:33N 35°38' E 139°46'0 0.1
2016-May-19 12:33N 35°38' E 139°46'0 0.0
2016-May-19 11:31N 35°38' E 139°46'0 0.0
2016-May-19 10:31N 35°38' E 139°46'0 0.0
2016-May-19 09:31N 35°38' E 139°46'0 0.0
2016-May-19 08:29N 35°38' E 139°46'910.2
2016-May-19 07:34N 35°30' E 139°52'1414.0
2016-May-19 06:34N 35°17' E 139°46'1615.8
2016-May-19 05:33N 35°01' E 139°44'1413.7
2016-May-19 04:30N 34°51' E 139°56'1617.2
2016-May-19 03:34N 34°59' E 140°14'1715.8
2016-May-19 02:28N 35°09' E 140°31'1718.1
2016-May-19 01:33N 35°22' E 140°43'4118.3
2016-May-18 23:19N 35°59' E 141°06'1718.7
2016-May-18 22:25N 36°15' E 141°11'1818.6
2016-May-18 21:28N 36°32' E 141°17'8 0.2
2016-May-16 23:12N 36°25' E 141°13'1218.8
2016-May-16 22:33N 36°13' E 141°09'3818.7
2016-May-16 20:31N 35°36' E 140°56'1819.1
2016-May-16 19:33N 35°21' E 140°43'2220.3
2016-May-16 18:28N 35°04' E 140°26'1920.6
2016-May-16 17:33N 34°54' E 140°06'1716.8
2016-May-16 16:31N 34°55' E 139°45'1718.1
2016-May-16 15:34N 35°13' E 139°46'1413.6
2016-May-16 14:34N 35°26' E 139°45'1211.6
2016-May-16 13:34N 35°38' E 139°46'0 0.1
2016-May-16 12:31N 35°38' E 139°46'0 0.0
2016-May-16 11:28N 35°38' E 139°46'0 0.0
2016-May-16 10:31N 35°38' E 139°46'0 0.0
2016-May-16 09:31N 35°38' E 139°46'0 0.0
2016-May-16 08:32N 35°38' E 139°46'9 9.4
2016-May-16 07:34N 35°30' E 139°52'1414.5
2016-May-16 06:34N 35°17' E 139°45'1616.1
2016-May-16 05:33N 35°01' E 139°43'1514.4
2016-May-16 04:31N 34°51' E 139°56'1617.0
2016-May-16 03:33N 34°59' E 140°13'1915.9
2016-May-16 02:23N 35°10' E 140°32'1717.8
2016-May-16 01:27N 35°23' E 140°44'1718.5
2016-May-16 00:33N 35°37' E 140°56'  
Track history (hours):
 
Tides and Currents Weather Stations Pressure Air Temp Water Temp Dewpoint Dewpoint Depression Visibility Wind Speed Wind Dir Waves Ship Positions

Shin-oh Maru

Last reported at 2016-May-25 22:33 UTC. Time now 2016-May-26 12:39 UTC.
Position N 36°12' E 141°09'.

Length 161 m; draft 6.9 m.

Type: Ship (hazmat cat A). MMSI: 431100859.

Date/timePositionNaut miles runAvg speedWind from/ knotsBaromVisibWave heightAir tempDewpointWater temp
2016-May-25 22:33N 36°12' E 141°09'2519.0
2016-May-25 21:14N 35°48' E 141°02'2018.9
2016-May-25 20:09N 35°29' E 140°50'4020.1
2016-May-25 18:11N 35°00' E 140°18'1320.3
2016-May-25 17:32N 34°54' E 140°04'1616.5
2016-May-25 16:34N 34°55' E 139°44'1918.5
2016-May-25 15:33N 35°13' E 139°46'1313.5
2016-May-25 14:33N 35°27' E 139°46'1111.1
2016-May-25 13:33N 35°38' E 139°46'0 0.0
2016-May-25 12:34N 35°38' E 139°46'0 0.0
2016-May-25 11:31N 35°38' E 139°46'0 0.0
2016-May-25 10:31N 35°38' E 139°46'0 0.0
2016-May-25 09:31N 35°38' E 139°46'0 0.0
2016-May-25 08:33N 35°38' E 139°46'9 8.8
2016-May-25 07:33N 35°31' E 139°52'1514.6
2016-May-25 06:33N 35°17' E 139°45'1716.3
2016-May-25 05:32N 35°01' E 139°44'1313.5
2016-May-25 04:34N 34°52' E 139°57'3616.7
2016-May-25 02:24N 35°12' E 140°33'3518.4
2016-May-25 00:31N 35°40' E 140°58'1818.6
2016-May-24 23:33N 35°57' E 141°05'1918.9
2016-May-24 22:33N 36°15' E 141°12'1919.0
2016-May-24 21:34N 36°34' E 141°17'1919.3
2016-May-24 20:33N 36°52' E 141°23'1919.2
2016-May-24 19:33N 37°11' E 141°29'1918.8
2016-May-24 18:33N 37°29' E 141°34'1918.9
2016-May-24 17:33N 37°48' E 141°40'2118.7
2016-May-24 16:27N 38°08' E 141°45'68 1.7
2016-May-23 01:13N 37°02' E 141°25'1117.4
2016-May-23 00:33N 36°51' E 141°22'1717.2
2016-May-22 23:33N 36°34' E 141°16'1717.4
2016-May-22 22:33N 36°18' E 141°11'1717.3
2016-May-22 21:33N 36°01' E 141°06'1717.4
2016-May-22 20:33N 35°44' E 141°01'1717.2
2016-May-22 19:33N 35°29' E 140°50'1717.3
2016-May-22 18:33N 35°15' E 140°37'1717.2
2016-May-22 17:33N 35°02' E 140°23'1615.8
2016-May-22 16:33N 34°55' E 140°06'1515.2
2016-May-22 15:33N 34°51' E 139°48'1616.2
2016-May-22 14:33N 35°07' E 139°44'1414.1
2016-May-22 13:34N 35°21' E 139°42'1514.9
2016-May-22 12:33N 35°36' E 139°47'2 2.3
2016-May-22 11:33N 35°38' E 139°46'0 0.0
2016-May-22 10:33N 35°38' E 139°46'0 0.0
2016-May-22 09:33N 35°38' E 139°46'0 0.0
2016-May-22 08:33N 35°38' E 139°46'7 6.6
2016-May-22 07:33N 35°33' E 139°51'1515.1
2016-May-22 06:34N 35°19' E 139°44'1515.1
2016-May-22 05:34N 35°04' E 139°45'1513.7
2016-May-22 04:27N 34°51' E 139°56'1617.7
2016-May-22 03:32N 34°59' E 140°14'1816.9
2016-May-22 02:29N 35°10' E 140°31'1617.7
2016-May-22 01:34N 35°23' E 140°43'1918.8
2016-May-22 00:32N 35°38' E 140°57'1918.9
2016-May-21 23:33N 35°56' E 141°05'2019.7
2016-May-21 22:34N 36°15' E 141°11'2319.3
2016-May-21 21:22N 36°37' E 141°18'1619.3
2016-May-21 20:33N 36°52' E 141°23'31 0.7
2016-May-19 23:33N 36°23' E 141°12'1817.8
2016-May-19 22:33N 36°05' E 141°07'1817.6
2016-May-19 21:33N 35°48' E 141°02'1817.5
2016-May-19 20:31N 35°32' E 140°53'1817.9
2016-May-19 19:32N 35°17' E 140°40'2018.7
2016-May-19 18:28N 35°03' E 140°23'1718.8
2016-May-19 17:33N 34°54' E 140°05'1615.9
2016-May-19 16:33N 34°52' E 139°46'1818.4
2016-May-19 15:34N 35°11' E 139°46'1414.3
2016-May-19 14:34N 35°25' E 139°44'1312.8
2016-May-19 13:33N 35°38' E 139°46'0 0.1
2016-May-19 12:33N 35°38' E 139°46'0 0.0
2016-May-19 11:31N 35°38' E 139°46'0 0.0
2016-May-19 10:31N 35°38' E 139°46'0 0.0
2016-May-19 09:31N 35°38' E 139°46'0 0.0
2016-May-19 08:29N 35°38' E 139°46'910.2
2016-May-19 07:34N 35°30' E 139°52'1414.0
2016-May-19 06:34N 35°17' E 139°46'1615.8
2016-May-19 05:33N 35°01' E 139°44'1413.7
2016-May-19 04:30N 34°51' E 139°56'1617.2
2016-May-19 03:34N 34°59' E 140°14'1715.8
2016-May-19 02:28N 35°09' E 140°31'1718.1
2016-May-19 01:33N 35°22' E 140°43'4118.3
2016-May-18 23:19N 35°59' E 141°06'1718.7
2016-May-18 22:25N 36°15' E 141°11'1818.6
2016-May-18 21:28N 36°32' E 141°17'8 0.2
2016-May-16 23:12N 36°25' E 141°13'1218.8
2016-May-16 22:33N 36°13' E 141°09'3818.7
2016-May-16 20:31N 35°36' E 140°56'1819.1
2016-May-16 19:33N 35°21' E 140°43'2220.3
2016-May-16 18:28N 35°04' E 140°26'1920.6
2016-May-16 17:33N 34°54' E 140°06'1716.8
2016-May-16 16:31N 34°55' E 139°45'1718.1
2016-May-16 15:34N 35°13' E 139°46'1413.6
2016-May-16 14:34N 35°26' E 139°45'1211.6
2016-May-16 13:34N 35°38' E 139°46'0 0.1
2016-May-16 12:31N 35°38' E 139°46'0 0.0
2016-May-16 11:28N 35°38' E 139°46'0 0.0
2016-May-16 10:31N 35°38' E 139°46'0 0.0
2016-May-16 09:31N 35°38' E 139°46'0 0.0
2016-May-16 08:32N 35°38' E 139°46'9 9.4
2016-May-16 07:34N 35°30' E 139°52'1414.5
2016-May-16 06:34N 35°17' E 139°45'1616.1
2016-May-16 05:33N 35°01' E 139°43'1514.4
2016-May-16 04:31N 34°51' E 139°56'1617.0
2016-May-16 03:33N 34°59' E 140°13'1915.9
2016-May-16 02:23N 35°10' E 140°32'1717.8
2016-May-16 01:27N 35°23' E 140°44'1718.5
2016-May-16 00:33N 35°37' E 140°56'  

Dump ship's entire track history